Terminal Aerodrome Forecast
Issued by NWS Grand Forks, ND

Home | Current Version | Previous Version | Graphics & Text | Print | Product List | Glossary On
Versions: 1 2 3 4 5 6 7 8 9 10 11 12 13
000
FTUS43 KFGF 032300
TAFFAR
TAF
KFAR 032335Z 0400/0424 31019G27KT P6SM -SN BKN025
     FM040300 31013KT P6SM SCT250
     FM041100 31015KT P6SM BKN060=

USA.gov is the U.S. government's official web portal to all federal, state and local government web resources and services.